DNAA METAR and TAF | Updated Today

DNAA METAR

Nnamdi Azikiwe International Airport

Observation time: 43 min. ago

DNAA 301700Z 21004KT CAVOK 33/16 Q1010 NOSIG

Need help? Read our tutorial on how to read METARs or read the parsed version below.

Nnamdi Azikiwe International Airport (DNAA) METAR

  • Weather conditions on Tue, 30 Nov 2021 17:00:00 +0000 (43 min. ago):
  • Present conditions: Dry
  • Clouds: Clear skies
  • Visibility: Greater than 10 km
  • Wind: 210 degrees at 4 knots
  • Temperature: 33 celsius
  • Dew point: 16 celsius
  • Pressure: 1010 millibars
  • Remarks: None


Useful to know...

DNAA TAF

Nnamdi Azikiwe International Airport

TAF COR DNAA 281100Z 2812/2918 25004KT CAVOK BECMG 2820/2822 07010KT BECM
Observation time: 54:43 hr. ago
Need help? Read our tutorial on how to read TAFs or read the parsed version below.

Parsed version of TAF for Nnamdi Azikiwe International Airport (DNAA)

  • From 28 November at 12:00 UTC, to day 29 of the month at 18:00 UTC
  • Visibility: Greater than 10 km
  • Wind: 250 degrees at 4
  • Expected to arise soon, from 28 November at 20:00 UTC, to day 28 of the month at 22:00 UTC
  • Wind: 70 degrees at 10

Airports near DNAA

No airports found within 100nm radius.